Time;durP1;ratioP1;P1;durP2;ratioP2;P2;SDS_P1;SDS_P2;PMS_P1;PMS_P2;Temp;Humidity;BMP_temperature;BMP_pressure;BME280_temperature;BME280_humidity;BME280_pressure;Samples;Min_cycle;Max_cycle;Signal;HPM_P1;HPM_P2
2022/09/22 00:00:10;;;;;;;8.70;4.35;;;;;;;8.71;100.00;99161.63;2623523;28;20063;-81
2022/09/22 00:01:37;;;;;;;8.73;4.40;;;;;;;8.67;100.00;99159.94;2620492;28;20131;-82
2022/09/22 00:02:59;;;;;;;8.57;4.35;;;;;;;8.66;100.00;99160.78;2621736;28;20109;-79
2022/09/22 00:04:15;;;;;;;11.13;4.22;;;;;;;8.68;100.00;99164.28;2622660;28;20165;-82
2022/09/22 00:05:30;;;;;;;6.85;4.25;;;;;;;8.69;100.00;99168.63;2622438;28;20048;-80
2022/09/22 00:06:50;;;;;;;8.82;4.72;;;;;;;8.62;100.00;99163.44;2619811;28;20600;-81
2022/09/22 00:08:06;;;;;;;8.75;4.43;;;;;;;8.67;100.00;99168.63;2618776;28;20119;-79
2022/09/22 00:09:22;;;;;;;11.65;4.40;;;;;;;8.68;100.00;99161.66;2620374;28;20106;-80
2022/09/22 00:10:37;;;;;;;7.88;4.43;;;;;;;8.69;100.00;99168.63;2622188;28;20049;-81
2022/09/22 00:11:54;;;;;;;8.60;4.97;;;;;;;8.64;100.00;99165.16;2620558;28;20055;-82
2022/09/22 00:13:10;;;;;;;8.05;4.43;;;;;;;8.59;100.00;99166.06;2621840;28;20061;-79
2022/09/22 00:14:27;;;;;;;8.32;4.50;;;;;;;8.60;100.00;99159.97;2620534;28;20415;-80
2022/09/22 00:15:45;;;;;;;11.57;5.88;;;;;;;8.49;100.00;99166.97;2623573;28;20541;-80
2022/09/22 00:17:01;;;;;;;10.32;5.18;;;;;;;8.50;100.00;99167.88;2621006;28;20143;-79
2022/09/22 00:18:16;;;;;;;11.30;5.25;;;;;;;8.50;100.00;99160.91;2620968;28;20047;-81
2022/09/22 00:19:35;;;;;;;8.25;4.93;;;;;;;8.57;100.00;99161.72;2622918;28;21036;-84
2022/09/22 00:20:50;;;;;;;15.23;5.47;;;;;;;8.66;100.00;99152.94;2620648;28;20331;-80
2022/09/22 00:22:06;;;;;;;7.35;4.65;;;;;;;8.74;100.00;99153.75;2620659;28;20056;-86
2022/09/22 00:23:25;;;;;;;9.63;4.60;;;;;;;8.74;100.00;99153.75;2621623;28;20058;-79
2022/09/22 00:24:42;;;;;;;9.40;5.10;;;;;;;8.77;100.00;99156.34;2621698;28;20417;-79
2022/09/22 00:25:58;;;;;;;6.95;4.43;;;;;;;8.72;100.00;99159.00;2620425;28;20048;-80
2022/09/22 00:27:14;;;;;;;7.85;5.07;;;;;;;8.57;100.00;99153.91;2621468;28;20075;-82
2022/09/22 00:28:29;;;;;;;8.15;4.65;;;;;;;8.47;100.00;99158.31;2620553;28;20056;-80
2022/09/22 00:29:45;;;;;;;10.63;5.10;;;;;;;8.43;100.00;99157.44;2623218;28;20044;-80
2022/09/22 00:31:10;;;;;;;10.45;5.38;;;;;;;8.53;100.00;99160.91;2622725;28;20048;-79
2022/09/22 00:32:26;;;;;;;11.20;5.18;;;;;;;8.60;100.00;99159.13;2619737;28;20048;-80
2022/09/22 00:33:45;;;;;;;7.93;5.00;;;;;;;8.57;100.00;99154.78;2620794;28;20051;-79
2022/09/22 00:35:00;;;;;;;10.57;4.70;;;;;;;8.65;100.00;99162.53;2621012;28;20048;-80
2022/09/22 00:36:17;;;;;;;8.80;5.35;;;;;;;8.66;100.00;99158.16;2621188;28;20101;-80
2022/09/22 00:37:33;;;;;;;11.25;5.25;;;;;;;8.52;100.00;99155.69;2619695;28;20041;-80
2022/09/22 00:38:50;;;;;;;11.20;5.35;;;;;;;8.47;100.00;99158.31;2620304;28;20559;-78
2022/09/22 00:40:06;;;;;;;10.20;4.78;;;;;;;8.55;100.00;99159.16;2621434;28;20055;-80
2022/09/22 00:41:28;;;;;;;10.95;5.65;;;;;;;8.65;100.00;99156.44;2620394;28;20427;-79
2022/09/22 00:42:44;;;;;;;;;;;;;;;8.71;100.00;99151.19;2620523;28;20056;-79
2022/09/22 00:44:25;;;;;;;10.80;5.30;;;;;;;8.75;100.00;99150.28;2620628;28;20528;-79
2022/09/22 00:45:41;;;;;;;9.50;5.10;;;;;;;8.56;100.00;99152.16;2622080;28;20040;-80
2022/09/22 00:47:24;;;;;;;10.13;5.70;;;;;;;8.57;100.00;99157.38;2622184;28;20514;-81
2022/09/22 00:48:44;;;;;;;;;;;;;;;8.64;100.00;99154.72;2621854;28;20063;-81
2022/09/22 00:50:04;;;;;;;7.97;4.45;;;;;;;8.58;100.00;99161.72;2622019;28;20013;-82
2022/09/22 00:51:22;;;;;;;10.18;5.82;;;;;;;8.19;100.00;99150.69;2625299;28;20052;-82
2022/09/22 00:52:45;;;;;;;9.85;4.90;;;;;;;8.19;100.00;99148.94;2624644;28;20048;-86
2022/09/22 00:54:05;;;;;;;10.80;5.32;;;;;;;8.44;100.00;99153.97;2622722;28;20105;-81
2022/09/22 00:55:28;;;;;;;11.43;4.85;;;;;;;8.44;100.00;99153.13;2623733;28;20051;-82
2022/09/22 00:56:54;;;;;;;15.57;5.65;;;;;;;8.31;100.00;99139.28;2623019;28;20479;-82
2022/09/22 00:58:14;;;;;;;22.00;5.63;;;;;;;8.06;100.00;99131.66;2620961;28;20415;-81
2022/09/22 00:59:30;;;;;;;48.33;6.95;;;;;;;8.11;100.00;99134.22;2622950;28;20101;-82
2022/09/22 01:00:45;;;;;;;108.50;7.60;;;;;;;8.11;100.00;99122.03;2623665;28;20052;-82
2022/09/22 01:02:01;;;;;;;132.63;11.40;;;;;;;8.14;100.00;99131.59;2622057;28;20470;-81
2022/09/22 01:03:21;;;;;;;118.18;10.90;;;;;;;8.18;100.00;99130.69;2623155;28;20400;-79
2022/09/22 01:04:36;;;;;;;91.25;7.30;;;;;;;8.28;100.00;99134.97;2621398;28;20056;-80
2022/09/22 01:05:57;;;;;;;129.73;15.48;;;;;;;8.33;100.00;99138.41;2621207;28;20053;-81
2022/09/22 01:07:12;;;;;;;132.25;10.85;;;;;;;8.14;100.00;99139.41;2622259;28;20052;-81
2022/09/22 01:08:30;;;;;;;151.23;12.23;;;;;;;8.28;100.00;99140.19;2623825;28;20100;-82
2022/09/22 01:09:45;;;;;;;190.90;12.18;;;;;;;8.22;100.00;99140.22;2622375;28;20089;-79
2022/09/22 01:11:02;;;;;;;142.68;9.35;;;;;;;8.31;100.00;99142.75;2624044;28;20060;-80
2022/09/22 01:12:18;;;;;;;11.68;4.93;;;;;;;8.32;100.00;99136.66;2621136;28;20055;-83
2022/09/22 01:14:05;;;;;;;10.40;5.53;;;;;;;8.21;100.00;99138.47;2623982;28;20549;-79
2022/09/22 01:15:49;;;;;;;16.30;5.18;;;;;;;8.23;100.00;99149.78;2622285;28;20055;-79
2022/09/22 01:17:34;;;;;;;16.20;5.38;;;;;;;8.33;100.00;99138.41;2624060;28;20094;-79
2022/09/22 01:19:11;;;;;;;26.52;5.90;;;;;;;8.39;100.00;99134.88;2622937;28;20606;-81
2022/09/22 01:21:01;;;;;;;109.80;8.98;;;;;;;8.37;100.00;99140.97;2622957;28;20040;-79
2022/09/22 01:22:35;;;;;;;38.40;5.78;;;;;;;8.29;100.00;99147.13;2621841;28;20056;-79
2022/09/22 01:24:09;;;;;;;44.22;6.80;;;;;;;8.34;100.00;99147.09;2620941;28;20095;-79
2022/09/22 01:26:02;;;;;;;38.42;7.13;;;;;;;8.24;100.00;99151.53;2623100;28;20052;-80
2022/09/22 01:27:31;;;;;;;45.45;6.30;;;;;;;8.22;100.00;99148.03;2622143;28;20475;-80
2022/09/22 01:29:05;;;;;;;11.77;5.25;;;;;;;8.21;100.00;99146.31;2621236;28;20087;-81
2022/09/22 01:30:42;;;;;;;17.20;5.70;;;;;;;8.24;100.00;99138.50;2622441;28;20256;-80
2022/09/22 01:32:03;;;;;;;9.82;4.80;;;;;;;8.31;100.00;99136.66;2621487;28;20052;-85
2022/09/22 01:33:28;;;;;;;19.58;5.10;;;;;;;8.13;100.00;99133.31;2623676;28;20044;-80
2022/09/22 01:35:11;;;;;;;10.63;5.35;;;;;;;8.11;100.00;99129.03;2621641;28;20106;-80
2022/09/22 01:36:30;;;;;;;12.52;5.45;;;;;;;8.25;100.00;99128.91;2624355;28;20418;-82
2022/09/22 01:38:07;;;;;;;8.82;5.28;;;;;;;8.22;100.00;99121.09;2621274;28;20044;-80
2022/09/22 01:39:48;;;;;;;9.48;5.28;;;;;;;8.29;100.00;99120.16;2624309;28;20506;-82
2022/09/22 01:41:14;;;;;;;8.98;4.50;;;;;;;8.22;100.00;99119.34;2621601;28;20146;-80
2022/09/22 01:42:43;;;;;;;14.68;5.63;;;;;;;8.23;100.00;99123.69;2621420;28;20052;-79
2022/09/22 01:44:04;;;;;;;11.88;5.40;;;;;;;8.22;100.00;99121.97;2623459;28;20075;-79
2022/09/22 01:45:25;;;;;;;17.30;5.72;;;;;;;8.24;100.00;99125.44;2621455;28;20486;-81
2022/09/22 01:46:50;;;;;;;21.33;5.88;;;;;;;8.22;100.00;99121.97;2623699;28;20502;-80
2022/09/22 01:48:13;;;;;;;14.77;5.57;;;;;;;8.08;100.00;99123.81;2623430;28;20144;-80
2022/09/22 01:49:34;;;;;;;12.30;5.90;;;;;;;8.22;100.00;99115.88;2622229;28;20105;-80
2022/09/22 01:51:03;;;;;;;15.10;6.25;;;;;;;8.25;100.00;99121.97;2621550;28;20630;-80
2022/09/22 01:52:25;;;;;;;17.38;7.32;;;;;;;8.25;100.00;99119.34;2622520;28;20407;-80
2022/09/22 01:53:46;;;;;;;126.90;11.57;;;;;;;8.33;100.00;99109.69;2622548;28;20862;-80
2022/09/22 01:55:07;;;;;;;136.38;14.10;;;;;;;8.38;100.00;99111.41;2621761;28;20079;-81
2022/09/22 01:56:25;;;;;;;16.23;5.47;;;;;;;8.32;100.00;99107.13;2623074;28;20447;-80
2022/09/22 01:57:43;;;;;;;17.77;5.63;;;;;;;8.26;100.00;99113.25;2621144;28;20498;-81
2022/09/22 01:59:03;;;;;;;21.42;5.57;;;;;;;8.24;100.00;99115.00;2623672;28;20116;-82
2022/09/22 02:00:19;;;;;;;47.70;8.05;;;;;;;8.29;100.00;99113.22;2623919;28;20052;-80
2022/09/22 02:01:41;;;;;;;15.00;5.95;;;;;;;8.33;100.00;99104.47;2624536;28;20067;-83
2022/09/22 02:03:23;;;;;;;9.10;5.60;;;;;;;8.41;100.00;99111.41;2623105;28;20049;-80
2022/09/22 02:04:49;;;;;;;10.90;5.25;;;;;;;8.28;100.00;99111.50;2624045;28;20245;-81
2022/09/22 02:06:13;;;;;;;10.10;4.75;;;;;;;8.31;100.00;99105.38;2623716;28;20080;-80
2022/09/22 02:07:37;;;;;;;22.90;5.28;;;;;;;8.22;100.00;99105.47;2621825;28;20053;-83
2022/09/22 02:09:01;;;;;;;13.27;4.95;;;;;;;8.22;100.00;99103.69;2623169;28;20140;-80
2022/09/22 02:10:23;;;;;;;9.30;5.38;;;;;;;8.22;100.00;99106.31;2622459;28;20075;-80
2022/09/22 02:11:39;;;;;;;11.18;5.18;;;;;;;8.11;100.00;99108.16;2621577;28;20570;-82
2022/09/22 02:12:55;;;;;;;10.80;5.38;;;;;;;8.18;100.00;99104.59;2623347;28;20048;-81
2022/09/22 02:14:11;;;;;;;12.75;5.50;;;;;;;8.22;100.00;99105.47;2623458;28;20525;-80
2022/09/22 02:17:21;;;;;;;11.25;4.72;;;;;;;8.01;100.00;99113.41;2591966;28;20520;-85
2022/09/22 02:18:49;;;;;;;12.18;5.07;;;;;;;7.90;100.00;99105.69;2590168;28;20054;-79
2022/09/22 02:20:05;;;;;;;10.48;5.32;;;;;;;7.82;100.00;99111.78;2591479;28;20042;-79
2022/09/22 02:21:23;;;;;;;9.57;5.30;;;;;;;7.84;100.00;99105.69;2588650;28;20057;-80
2022/09/22 02:22:39;;;;;;;9.60;5.00;;;;;;;7.94;100.00;99106.50;2599349;28;20052;-80
2022/09/22 02:23:55;;;;;;;9.98;5.10;;;;;;;8.01;100.00;99107.31;2621959;28;20052;-81
2022/09/22 02:25:11;;;;;;;11.38;5.15;;;;;;;8.03;100.00;99106.44;2623433;28;20044;-81
2022/09/22 02:26:30;;;;;;;7.75;4.60;;;;;;;8.03;100.00;99110.78;2621347;28;20185;-80
2022/09/22 02:27:47;;;;;;;7.88;5.03;;;;;;;8.09;100.00;99109.88;2623154;28;20449;-80
2022/09/22 02:29:09;;;;;;;11.68;5.15;;;;;;;8.16;100.00;99099.38;2622811;28;20537;-80
2022/09/22 02:30:26;;;;;;;32.38;6.47;;;;;;;8.16;100.00;99106.38;2623896;28;20044;-81
2022/09/22 02:31:41;;;;;;;20.83;5.10;;;;;;;8.12;100.00;99102.06;2623163;28;20080;-80
2022/09/22 02:32:59;;;;;;;37.05;6.85;;;;;;;8.15;100.00;99109.84;2622831;28;20222;-80
2022/09/22 02:34:15;;;;;;;10.65;5.13;;;;;;;8.13;100.00;99109.00;2623979;28;20048;-80
2022/09/22 02:35:34;;;;;;;8.38;5.07;;;;;;;8.05;100.00;99102.09;2623895;28;20052;-80
2022/09/22 02:37:02;;;;;;;8.10;4.20;;;;;;;7.89;100.00;99103.06;2621799;28;20060;-82
2022/09/22 02:38:28;;;;;;;9.50;5.03;;;;;;;7.91;100.00;99106.53;2623659;28;20040;-80
2022/09/22 02:39:55;;;;;;;7.75;5.05;;;;;;;7.99;100.00;99107.34;2620976;28;20196;-83
2022/09/22 02:41:20;;;;;;;12.00;5.55;;;;;;;7.94;100.00;99105.66;2621041;28;20052;-80
2022/09/22 02:42:44;;;;;;;8.60;4.53;;;;;;;7.93;100.00;99101.31;2621618;28;20106;-80
2022/09/22 02:44:11;;;;;;;10.27;5.07;;;;;;;8.04;100.00;99100.34;2621664;28;20531;-82
2022/09/22 02:45:46;;;;;;;13.88;5.05;;;;;;;7.92;100.00;99100.44;2620650;28;20051;-81
2022/09/22 02:47:08;;;;;;;9.65;4.57;;;;;;;7.91;100.00;99102.19;2622621;28;20047;-84
2022/09/22 02:48:29;;;;;;;27.58;5.22;;;;;;;7.79;100.00;99102.25;2622441;28;20080;-81
2022/09/22 02:49:47;;;;;;;22.35;5.55;;;;;;;7.88;100.00;99102.19;2622687;28;20048;-80
2022/09/22 02:51:03;;;;;;;12.77;4.60;;;;;;;7.90;100.00;99099.59;2621726;28;20057;-81
2022/09/22 02:52:21;;;;;;;8.60;4.90;;;;;;;7.90;100.00;99100.47;2622825;28;20483;-81
2022/09/22 02:53:37;;;;;;;16.90;5.00;;;;;;;7.85;100.00;99102.22;2621887;28;20052;-81
2022/09/22 02:54:53;;;;;;;7.93;4.78;;;;;;;7.86;100.00;99095.28;2622026;28;20328;-80
2022/09/22 02:56:09;;;;;;;12.20;5.25;;;;;;;7.79;100.00;99091.84;2622782;28;20486;-80
2022/09/22 02:57:25;;;;;;;10.68;5.25;;;;;;;7.80;100.00;99092.69;2622641;28;20045;-82
2022/09/22 02:58:40;;;;;;;9.45;5.13;;;;;;;7.77;100.00;99093.59;2622996;28;20060;-79
2022/09/22 02:59:56;;;;;;;10.27;4.90;;;;;;;7.76;100.00;99084.91;2621360;28;20049;-80
2022/09/22 03:01:12;;;;;;;15.48;5.20;;;;;;;7.76;100.00;99091.88;2622448;28;20402;-80
2022/09/22 03:02:27;;;;;;;30.33;5.18;;;;;;;7.68;100.00;99086.66;2622482;28;20051;-79
2022/09/22 03:03:42;;;;;;;12.23;5.05;;;;;;;7.59;100.00;99084.13;2622571;28;20044;-79
2022/09/22 03:04:58;;;;;;;11.00;4.80;;;;;;;7.46;100.00;99092.00;2623630;28;20060;-79
2022/09/22 03:06:14;;;;;;;13.02;5.68;;;;;;;7.52;100.00;99085.91;2622319;28;20079;-83
2022/09/22 03:07:29;;;;;;;11.43;5.22;;;;;;;7.60;100.00;99091.94;2621786;28;20044;-80
2022/09/22 03:08:45;;;;;;;11.48;5.32;;;;;;;7.55;100.00;99091.09;2622049;28;20494;-79
2022/09/22 03:10:00;;;;;;;10.68;4.97;;;;;;;7.43;100.00;99089.44;2622513;28;20063;-81
2022/09/22 03:11:16;;;;;;;11.68;5.30;;;;;;;7.42;100.00;99084.22;2620128;28;20060;-81
2022/09/22 03:12:32;;;;;;;16.98;6.03;;;;;;;7.45;100.00;99086.78;2620360;28;20880;-79
2022/09/22 03:13:48;;;;;;;16.55;5.82;;;;;;;7.51;100.00;99085.91;2622794;28;20496;-80
2022/09/22 03:15:04;;;;;;;11.70;5.35;;;;;;;7.49;100.00;99092.00;2623666;28;20048;-79
2022/09/22 03:16:20;;;;;;;15.57;5.53;;;;;;;7.59;100.00;99084.97;2622678;28;20219;-79
2022/09/22 03:17:36;;;;;;;13.27;5.53;;;;;;;7.49;100.00;99085.94;2620826;28;20048;-79
2022/09/22 03:18:52;;;;;;;10.07;5.05;;;;;;;7.37;100.00;99092.03;2621084;28;20047;-79
2022/09/22 03:20:10;;;;;;;11.38;5.25;;;;;;;7.28;100.00;99092.09;2623620;28;20045;-79
2022/09/22 03:21:26;;;;;;;14.80;5.10;;;;;;;7.23;100.00;99086.91;2620309;28;20048;-80
2022/09/22 03:22:41;;;;;;;11.23;5.45;;;;;;;7.26;100.00;99091.22;2622655;28;20059;-80
2022/09/22 03:23:57;;;;;;;9.23;5.10;;;;;;;7.38;100.00;99082.50;2620495;28;21052;-80
2022/09/22 03:25:13;;;;;;;31.60;5.10;;;;;;;7.44;100.00;99090.28;2620946;28;20056;-81
2022/09/22 03:26:28;;;;;;;16.60;6.22;;;;;;;7.37;100.00;99088.59;2620348;28;20486;-79
2022/09/22 03:27:44;;;;;;;10.60;4.53;;;;;;;7.18;100.00;99088.66;2620230;28;20158;-80
2022/09/22 03:29:00;;;;;;;6.28;4.20;;;;;;;7.27;100.00;99083.41;2620752;28;20048;-85
2022/09/22 03:30:15;;;;;;;10.73;4.15;;;;;;;7.23;100.00;99083.41;2621475;28;20127;-81
2022/09/22 03:31:31;;;;;;;6.13;4.35;;;;;;;7.36;100.00;99085.09;2620022;28;20064;-81
2022/09/22 03:32:46;;;;;;;8.27;4.93;;;;;;;7.36;100.00;99082.50;2620369;28;20044;-80
2022/09/22 03:34:02;;;;;;;7.00;4.43;;;;;;;7.17;100.00;99082.59;2620684;28;20040;-80
2022/09/22 03:35:17;;;;;;;7.25;4.68;;;;;;;7.25;100.00;99086.88;2621266;28;20048;-80
2022/09/22 03:36:34;;;;;;;6.85;4.22;;;;;;;7.25;100.00;99087.75;2620314;28;20399;-79
2022/09/22 03:37:49;;;;;;;13.82;4.70;;;;;;;7.43;100.00;99085.94;2621716;28;20051;-80
2022/09/22 03:39:05;;;;;;;7.22;4.60;;;;;;;7.41;100.00;99088.56;2621799;28;20052;-79
2022/09/22 03:40:21;;;;;;;6.72;4.35;;;;;;;7.37;100.00;99079.03;2619559;28;20594;-83
2022/09/22 03:41:37;;;;;;;6.63;4.35;;;;;;;7.33;100.00;99080.78;2620783;28;20113;-79
2022/09/22 03:42:52;;;;;;;8.73;5.13;;;;;;;7.37;100.00;99083.38;2621073;28;20045;-80
2022/09/22 03:44:08;;;;;;;8.13;4.95;;;;;;;7.33;100.00;99078.19;2621005;28;20040;-80
2022/09/22 03:45:23;;;;;;;9.35;5.20;;;;;;;7.33;100.00;99082.53;2621193;28;20409;-79
2022/09/22 03:46:39;;;;;;;9.23;4.72;;;;;;;7.33;100.00;99072.97;2622689;28;20419;-82
2022/09/22 03:47:55;;;;;;;12.77;4.68;;;;;;;7.33;100.00;99083.41;2622849;28;20045;-79
2022/09/22 03:49:10;;;;;;;15.43;5.35;;;;;;;7.51;100.00;99080.69;2620411;28;20398;-80
2022/09/22 03:50:27;;;;;;;124.40;9.07;;;;;;;7.60;100.00;99073.69;2621378;28;20529;-79
2022/09/22 03:51:43;;;;;;;94.78;9.63;;;;;;;7.35;100.00;99076.44;2621396;28;20448;-80
2022/09/22 03:52:58;;;;;;;106.70;8.90;;;;;;;7.38;100.00;99072.94;2620566;28;20041;-79
2022/09/22 03:54:13;;;;;;;89.10;10.00;;;;;;;7.33;100.00;99070.38;2621189;28;20206;-79
2022/09/22 03:55:29;;;;;;;88.43;6.90;;;;;;;7.29;100.00;99063.44;2622651;28;20076;-82
2022/09/22 03:56:45;;;;;;;111.00;9.52;;;;;;;7.29;100.00;99071.25;2621266;28;20062;-83
2022/09/22 03:58:01;;;;;;;91.82;10.07;;;;;;;7.35;100.00;99073.84;2621478;28;20052;-80
2022/09/22 03:59:17;;;;;;;102.32;9.95;;;;;;;7.38;100.00;99067.72;2619982;28;20059;-81
2022/09/22 04:00:32;;;;;;;110.88;9.18;;;;;;;7.38;100.00;99072.94;2621690;28;20742;-79
2022/09/22 04:01:48;;;;;;;135.35;10.73;;;;;;;7.35;100.00;99080.78;2618558;28;20064;-81
2022/09/22 04:03:04;;;;;;;91.57;11.18;;;;;;;7.34;100.00;99079.91;2619949;28;20059;-80
2022/09/22 04:04:19;;;;;;;129.43;9.65;;;;;;;7.36;100.00;99077.28;2623211;28;20052;-80
2022/09/22 04:05:35;;;;;;;79.10;6.60;;;;;;;7.37;100.00;99078.16;2622190;28;20067;-80
2022/09/22 04:06:51;;;;;;;102.10;8.35;;;;;;;7.27;100.00;99079.97;2622187;28;20056;-82
2022/09/22 04:08:07;;;;;;;19.55;5.22;;;;;;;7.16;100.00;99083.47;2620780;28;20495;-80
2022/09/22 04:09:22;;;;;;;58.20;7.53;;;;;;;7.24;100.00;99086.03;2621840;28;20045;-80
2022/09/22 04:10:38;;;;;;;81.65;7.95;;;;;;;7.28;100.00;99084.28;2621150;28;20079;-80
2022/09/22 04:11:54;;;;;;;34.72;7.00;;;;;;;7.30;100.00;99072.13;2621969;28;20072;-80
2022/09/22 04:13:09;;;;;;;58.67;7.07;;;;;;;7.32;100.00;99079.03;2622768;28;20051;-80
2022/09/22 04:14:25;;;;;;;38.88;6.00;;;;;;;7.31;100.00;99079.06;2620373;28;20514;-79
2022/09/22 04:15:40;;;;;;;31.45;7.00;;;;;;;7.35;100.00;99078.16;2620570;28;20084;-82
2022/09/22 04:16:56;;;;;;;31.58;6.13;;;;;;;7.27;100.00;99077.34;2620671;28;20073;-80
2022/09/22 04:18:13;;;;;;;26.40;6.47;;;;;;;7.07;100.00;99073.06;2619900;28;20430;-80
2022/09/22 04:19:28;;;;;;;17.48;6.28;;;;;;;6.97;100.00;99081.78;2620177;28;20079;-82
2022/09/22 04:20:44;;;;;;;13.45;5.68;;;;;;;6.98;100.00;99075.69;2620892;28;20045;-82
2022/09/22 04:22:02;;;;;;;40.63;8.20;;;;;;;7.21;100.00;99079.09;2620842;28;20634;-82
2022/09/22 04:23:17;;;;;;;48.15;6.63;;;;;;;7.26;100.00;99081.69;2619392;28;20048;-82
2022/09/22 04:24:33;;;;;;;20.45;6.10;;;;;;;7.11;100.00;99081.75;2620835;28;20406;-82
2022/09/22 04:25:48;;;;;;;12.45;5.70;;;;;;;7.19;100.00;99080.84;2621829;28;20052;-82
2022/09/22 04:27:04;;;;;;;23.75;6.82;;;;;;;7.27;100.00;99083.41;2621649;28;20075;-81
2022/09/22 04:28:19;;;;;;;10.93;5.82;;;;;;;7.20;100.00;99082.56;2621613;28;20086;-81
2022/09/22 04:29:35;;;;;;;34.47;7.05;;;;;;;7.37;100.00;99084.22;2621116;28;20392;-82
2022/09/22 04:30:50;;;;;;;38.10;7.20;;;;;;;7.40;100.00;99084.22;2621495;28;20063;-81
2022/09/22 04:32:06;;;;;;;27.88;5.35;;;;;;;7.35;100.00;99088.59;2619912;28;20065;-80
2022/09/22 04:33:22;;;;;;;72.32;7.90;;;;;;;7.33;100.00;99082.53;2619949;28;20479;-80
2022/09/22 04:34:38;;;;;;;61.97;7.03;;;;;;;7.37;100.00;99083.38;2619694;28;20139;-80
2022/09/22 04:35:53;;;;;;;48.78;8.88;;;;;;;7.40;100.00;99086.81;2620797;28;20071;-81
2022/09/22 04:37:10;;;;;;;57.95;8.60;;;;;;;7.26;100.00;99086.00;2620263;28;20127;-80
2022/09/22 04:38:26;;;;;;;71.80;8.00;;;;;;;7.15;100.00;99083.44;2621483;28;20398;-82
2022/09/22 04:39:41;;;;;;;38.42;6.15;;;;;;;7.14;100.00;99080.00;2619803;28;20044;-83
2022/09/22 04:40:57;;;;;;;73.65;7.35;;;;;;;7.23;100.00;99086.03;2620002;28;20159;-83
2022/09/22 04:42:13;;;;;;;43.45;6.47;;;;;;;7.16;100.00;99085.19;2621953;28;20166;-87
2022/09/22 04:43:29;;;;;;;29.65;5.60;;;;;;;7.23;100.00;99086.03;2621659;28;20414;-86
2022/09/22 04:44:45;;;;;;;40.47;7.53;;;;;;;7.32;100.00;99089.44;2619615;28;20049;-86
2022/09/22 04:46:01;;;;;;;50.08;7.88;;;;;;;7.29;100.00;99084.25;2618715;28;20083;-85
2022/09/22 04:47:23;;;;;;;31.38;6.18;;;;;;;7.37;100.00;99091.19;2619636;28;20044;-87
2022/09/22 04:48:38;;;;;;;38.42;5.10;;;;;;;7.16;100.00;99091.28;2621272;28;20169;-89
2022/09/22 04:49:54;;;;;;;35.80;5.95;;;;;;;7.05;100.00;99090.44;2623109;28;20085;-92
2022/09/22 04:51:30;;;;;;;63.25;6.75;;;;;;;7.25;100.00;99087.75;2606543;28;20049;-91
2022/09/22 04:52:54;;;;;;;57.47;5.90;;;;;;;7.11;100.00;99090.41;2610206;28;20126;-88
2022/09/22 04:54:10;;;;;;;58.97;6.93;;;;;;;7.16;100.00;99093.00;2618221;28;20045;-88
2022/09/22 04:55:27;;;;;;;73.70;7.68;;;;;;;7.15;100.00;99091.28;2620358;28;20048;-91
2022/09/22 04:56:43;;;;;;;67.53;7.85;;;;;;;7.00;100.00;99094.81;2621099;28;20049;-89
2022/09/22 04:57:59;;;;;;;68.78;7.88;;;;;;;7.07;100.00;99092.19;2620785;28;20068;-89
2022/09/22 04:59:14;;;;;;;50.97;6.10;;;;;;;7.08;100.00;99098.22;2621021;28;20422;-91
2022/09/22 05:00:30;;;;;;;51.47;6.97;;;;;;;7.01;100.00;99101.75;2619938;28;20040;-89
2022/09/22 05:01:45;;;;;;;53.42;6.10;;;;;;;7.02;100.00;99101.72;2620191;28;20053;-92
2022/09/22 05:03:10;;;;;;;81.50;7.90;;;;;;;7.18;100.00;99105.16;2623278;28;20051;-95
2022/09/22 05:04:26;;;;;;;73.38;8.15;;;;;;;7.30;100.00;99104.22;2622673;28;20055;-92
2022/09/22 05:05:42;;;;;;;68.63;7.45;;;;;;;7.31;100.00;99103.34;2622636;28;20605;-93
2022/09/22 05:06:57;;;;;;;49.97;8.25;;;;;;;7.42;100.00;99094.63;2620293;28;20120;-92
2022/09/22 05:08:14;;;;;;;54.80;6.75;;;;;;;7.20;100.00;99092.97;2621245;28;20048;-93
2022/09/22 05:09:29;;;;;;;63.13;7.50;;;;;;;7.30;100.00;99096.41;2620791;28;20570;-95
2022/09/22 05:10:45;;;;;;;45.42;7.20;;;;;;;7.42;100.00;99098.13;2621353;28;20067;-93
2022/09/22 05:12:01;;;;;;;28.35;6.18;;;;;;;7.48;100.00;99103.28;2621458;28;20051;-93
2022/09/22 05:13:18;;;;;;;66.72;8.50;;;;;;;7.47;100.00;99100.69;2623284;28;20113;-93
2022/09/22 05:14:34;;;;;;;36.28;6.68;;;;;;;7.44;100.00;99098.97;2620212;28;20101;-95
2022/09/22 05:15:50;;;;;;;19.23;6.45;;;;;;;7.61;100.00;99098.91;2620391;28;20049;-88
2022/09/22 05:17:05;;;;;;;47.35;8.50;;;;;;;7.63;100.00;99096.25;2620243;28;20528;-91
2022/09/22 05:18:22;;;;;;;53.55;7.28;;;;;;;7.42;100.00;99098.13;2622883;28;20944;-90
2022/09/22 05:19:37;;;;;;;60.40;7.53;;;;;;;7.55;100.00;99104.13;2620064;28;20049;-94
2022/09/22 05:20:53;;;;;;;59.90;8.55;;;;;;;7.50;100.00;99105.91;2620375;28;20052;-93
2022/09/22 05:22:09;;;;;;;46.05;7.15;;;;;;;7.49;100.00;99105.00;2620395;28;20087;-94
2022/09/22 05:23:25;;;;;;;43.72;6.82;;;;;;;7.47;100.00;99101.56;2621469;28;20520;-93
2022/09/22 05:24:41;;;;;;;41.85;8.93;;;;;;;7.43;100.00;99102.47;2621289;28;20048;-95
2022/09/22 05:25:57;;;;;;;43.67;7.95;;;;;;;7.46;100.00;99102.44;2620525;28;20044;-91
2022/09/22 05:27:12;;;;;;;43.72;7.88;;;;;;;7.40;100.00;99102.44;2620117;28;20773;-84
2022/09/22 05:28:28;;;;;;;14.65;7.32;;;;;;;7.42;100.00;99098.13;2620091;28;20579;-84
2022/09/22 05:29:44;;;;;;;14.73;7.63;;;;;;;7.57;100.00;99098.91;2621125;28;20048;-85
2022/09/22 05:30:59;;;;;;;30.20;7.43;;;;;;;7.51;100.00;99101.53;2621706;28;20422;-85
2022/09/22 05:32:15;;;;;;;30.83;7.25;;;;;;;7.27;100.00;99101.63;2620763;28;20434;-84
2022/09/22 05:33:31;;;;;;;64.40;9.20;;;;;;;7.46;100.00;99101.56;2620189;28;20094;-84
2022/09/22 05:34:46;;;;;;;23.75;7.55;;;;;;;7.44;100.00;99100.69;2621134;28;20037;-84
2022/09/22 05:36:02;;;;;;;21.90;7.35;;;;;;;7.53;100.00;99105.00;2622072;28;20045;-83
2022/09/22 05:37:17;;;;;;;49.90;7.60;;;;;;;7.61;100.00;99104.09;2621556;28;20043;-85
2022/09/22 05:38:33;;;;;;;46.67;8.48;;;;;;;7.74;100.00;99104.91;2621125;28;20078;-87
2022/09/22 05:39:49;;;;;;;32.05;8.13;;;;;;;7.61;100.00;99103.22;2621812;28;20087;-84
2022/09/22 05:41:05;;;;;;;27.45;8.20;;;;;;;7.55;100.00;99104.13;2621936;28;20052;-85
2022/09/22 05:42:22;;;;;;;14.82;7.60;;;;;;;7.69;100.00;99106.66;2621963;28;20502;-84
2022/09/22 05:43:38;;;;;;;26.23;8.82;;;;;;;7.78;100.00;99103.16;2621519;28;20861;-86
2022/09/22 05:44:53;;;;;;;35.25;9.15;;;;;;;7.84;100.00;99110.06;2622007;28;20043;-88
2022/09/22 05:46:09;;;;;;;30.40;8.38;;;;;;;7.64;100.00;99105.81;2619695;28;20613;-88
2022/09/22 05:47:25;;;;;;;26.35;8.05;;;;;;;7.71;100.00;99099.72;2621032;28;20068;-91
2022/09/22 05:48:40;;;;;;;24.50;8.45;;;;;;;7.77;100.00;99112.69;2619619;28;20040;-89
2022/09/22 05:49:56;;;;;;;31.13;8.32;;;;;;;7.81;100.00;99104.84;2619643;28;20039;-80
2022/09/22 05:51:11;;;;;;;25.58;8.55;;;;;;;7.89;100.00;99103.94;2622298;28;20049;-80
2022/09/22 05:52:27;;;;;;;25.42;8.32;;;;;;;7.97;100.00;99108.22;2621497;28;20718;-81
2022/09/22 05:53:43;;;;;;;19.60;8.15;;;;;;;7.94;100.00;99105.66;2622001;28;20446;-82
2022/09/22 05:54:58;;;;;;;27.45;7.47;;;;;;;7.91;100.00;99111.75;2622259;28;20044;-81
2022/09/22 05:56:14;;;;;;;33.22;8.63;;;;;;;8.14;100.00;99108.13;2622290;28;20044;-83
2022/09/22 05:57:31;;;;;;;17.67;7.93;;;;;;;7.86;100.00;99113.53;2622307;28;20050;-81
2022/09/22 05:58:46;;;;;;;20.10;8.52;;;;;;;7.77;100.00;99114.44;2622075;28;20273;-81
2022/09/22 06:00:07;;;;;;;17.90;7.57;;;;;;;8.06;100.00;99116.00;2622061;28;20080;-82
2022/09/22 06:01:22;;;;;;;17.38;8.07;;;;;;;7.83;100.00;99111.78;2622234;28;20055;-82
2022/09/22 06:02:38;;;;;;;13.88;7.75;;;;;;;8.10;100.00;99116.81;2622353;28;20082;-82
2022/09/22 06:03:54;;;;;;;20.60;7.78;;;;;;;7.96;100.00;99110.00;2621837;28;20044;-80
2022/09/22 06:05:10;;;;;;;22.00;8.00;;;;;;;7.87;100.00;99115.25;2621477;28;20482;-80
2022/09/22 06:06:25;;;;;;;22.00;8.68;;;;;;;7.93;100.00;99116.97;2623203;28;20047;-84
2022/09/22 06:07:41;;;;;;;20.20;8.85;;;;;;;8.10;100.00;99111.59;2622148;28;20056;-82
2022/09/22 06:08:57;;;;;;;17.25;8.40;;;;;;;7.91;100.00;99116.97;2623495;28;20044;-85